Time;durP1;ratioP1;P1;durP2;ratioP2;P2;SDS_P1;SDS_P2;PMS_P1;PMS_P2;Temp;Humidity;BMP_temperature;BMP_pressure;BME280_temperature;BME280_humidity;BME280_pressure;Samples;Min_cycle;Max_cycle;Signal;HPM_P1;HPM_P2
2021/01/26 00:00:36;;;;;;;;;;;;;;;;;;5080962;28;19932;-66
2021/01/26 00:03:03;;;;;;;;;;;;;;;;;;5089668;28;19985;-65
2021/01/26 00:05:29;;;;;;;;;;;;;;;;;;5091429;28;20015;-66
2021/01/26 00:07:56;;;;;;;;;;;;;;;;;;5092306;28;19977;-65
2021/01/26 00:10:22;;;;;;;;;;;;;;;;;;5092091;28;19932;-67
2021/01/26 00:12:49;;;;;;;;;;;;;;;;;;5082779;28;19924;-65
2021/01/26 00:15:15;;;;;;;;;;;;;;;;;;5086534;28;19931;-65
2021/01/26 00:17:42;;;;;;;;;;;;;;;;;;5083821;28;19985;-66
2021/01/26 00:20:08;;;;;;;;;;;;;;;;;;5083015;28;19924;-66
2021/01/26 00:22:35;;;;;;;;;;;;;;;;;;5088354;28;19924;-66
2021/01/26 00:25:01;;;;;;;;;;;;;;;;;;5085114;28;19923;-66
2021/01/26 00:27:28;;;;;;;;;;;;;;;;;;5086094;28;19976;-66
2021/01/26 00:29:54;;;;;;;;;;;;;;;;;;5089296;28;19969;-66
2021/01/26 00:32:20;;;;;;;;;;;;;;;;;;5083560;28;19928;-66
2021/01/26 00:34:47;;;;;;;;;;;;;;;;;;5091612;28;19924;-66
2021/01/26 00:37:13;;;;;;;;;;;;;;;;;;5085521;28;19957;-66
2021/01/26 00:39:40;;;;;;;;;;;;;;;;;;5089329;28;19924;-66
2021/01/26 00:42:06;;;;;;;;;;;;;;;;;;5087371;28;19928;-66
2021/01/26 00:44:33;;;;;;;;;;;;;;;;;;5089803;28;19932;-66
2021/01/26 00:46:59;;;;;;;;;;;;;;;;;;5090785;28;19930;-66
2021/01/26 00:49:26;;;;;;;;;;;;;;;;;;5084486;28;19931;-65
2021/01/26 00:51:52;;;;;;;;;;;;;;;;;;5088642;28;19932;-66
2021/01/26 00:54:19;;;;;;;;;;;;;;;;;;5087596;28;19928;-65
2021/01/26 00:56:45;;;;;;;;;;;;;;;;;;5086388;28;20287;-66
2021/01/26 00:59:12;;;;;;;;;;;;;;;;;;5080810;28;20004;-66
2021/01/26 01:01:38;;;;;;;;;;;;;;;;;;5093731;28;19924;-66
2021/01/26 01:04:05;;;;;;;;;;;;;;;;;;5094887;28;20462;-66
2021/01/26 01:06:31;;;;;;;;;;;;;;;;;;5095933;28;19946;-65
2021/01/26 01:08:58;;;;;;;;;;;;;;;;;;5092799;28;19930;-65
2021/01/26 01:11:24;;;;;;;;;;;;;;;;;;5090575;28;20396;-66
2021/01/26 01:13:51;;;;;;;;;;;;;;;;;;5089265;28;19924;-66
2021/01/26 01:16:17;;;;;;;;;;;;;;;;;;5095094;28;19924;-65
2021/01/26 01:18:44;;;;;;;;;;;;;;;;;;5095562;28;19930;-65
2021/01/26 01:21:10;;;;;;;;;;;;;;;;;;5095366;28;19928;-66
2021/01/26 01:23:37;;;;;;;;;;;;;;;;;;5094708;28;19954;-65
2021/01/26 01:26:04;;;;;;;;;;;;;;;;;;5090344;28;19931;-66
2021/01/26 01:28:30;;;;;;;;;;;;;;;;;;5095428;28;20035;-66
2021/01/26 01:30:57;;;;;;;;;;;;;;;;;;5094929;28;19936;-67
2021/01/26 01:33:23;;;;;;;;;;;;;;;;;;5094671;28;19930;-67
2021/01/26 01:35:50;;;;;;;;;;;;;;;;;;5087173;28;19924;-67
2021/01/26 01:38:16;;;;;;;;;;;;;;;;;;5087380;28;20038;-67
2021/01/26 01:40:43;;;;;;;;;;;;;;;;;;5082934;28;19924;-66
2021/01/26 01:43:09;;;;;;;;;;;;;;;;;;5092165;28;19931;-66
2021/01/26 01:45:36;;;;;;;;;;;;;;;;;;5092988;28;19930;-67
2021/01/26 01:48:02;;;;;;;;;;;;;;;;;;5088240;28;19970;-67
2021/01/26 01:50:28;;;;;;;;;;;;;;;;;;5088241;28;19925;-67
2021/01/26 01:52:55;;;;;;;;;;;;;;;;;;5082395;28;20300;-68
2021/01/26 01:55:21;;;;;;;;;;;;;;;;;;5091741;28;19990;-67
2021/01/26 01:57:48;;;;;;;;;;;;;;;;;;5090557;28;20003;-66
2021/01/26 02:00:14;;;;;;;;;;;;;;;;;;5083957;28;19924;-66
2021/01/26 02:02:41;;;;;;;;;;;;;;;;;;5087237;28;19932;-66
2021/01/26 02:05:07;;;;;;;;;;;;;;;;;;5092468;28;19924;-66
2021/01/26 02:07:34;;;;;;;;;;;;;;;;;;5087586;28;19928;-67
2021/01/26 02:10:00;;;;;;;;;;;;;;;;;;5094303;28;19924;-67
2021/01/26 02:12:27;;;;;;;;;;;;;;;;;;5089938;28;19947;-66
2021/01/26 02:14:53;;;;;;;;;;;;;;;;;;5094880;28;19931;-66
2021/01/26 02:17:20;;;;;;;;;;;;;;;;;;5092871;28;20007;-66
2021/01/26 02:19:46;;;;;;;;;;;;;;;;;;5091491;28;20372;-65
2021/01/26 02:22:13;;;;;;;;;;;;;;;;;;5090207;28;19924;-67
2021/01/26 02:24:39;;;;;;;;;;;;;;;;;;5092732;28;19925;-66
2021/01/26 02:27:06;;;;;;;;;;;;;;;;;;5088365;28;19928;-67
2021/01/26 02:29:32;;;;;;;;;;;;;;;;;;5083616;28;19932;-67
2021/01/26 02:31:59;;;;;;;;;;;;;;;;;;5093054;28;19924;-67
2021/01/26 02:34:25;;;;;;;;;;;;;;;;;;5089690;28;19985;-67
2021/01/26 02:36:52;;;;;;;;;;;;;;;;;;5094306;28;19931;-66
2021/01/26 02:39:18;;;;;;;;;;;;;;;;;;5094746;28;19976;-66
2021/01/26 02:41:44;;;;;;;;;;;;;;;;;;5083561;28;19924;-67
2021/01/26 02:44:11;;;;;;;;;;;;;;;;;;5089668;28;20432;-66
2021/01/26 02:46:37;;;;;;;;;;;;;;;;;;5094017;28;19925;-67
2021/01/26 02:49:04;;;;;;;;;;;;;;;;;;5085225;28;19924;-66
2021/01/26 02:51:30;;;;;;;;;;;;;;;;;;5091150;28;19924;-66
2021/01/26 02:53:57;;;;;;;;;;;;;;;;;;5080106;28;20193;-66
2021/01/26 02:56:23;;;;;;;;;;;;;;;;;;5085862;28;19977;-65
2021/01/26 02:58:50;;;;;;;;;;;;;;;;;;5085850;28;19977;-66
2021/01/26 03:01:16;;;;;;;;;;;;;;;;;;5090023;28;19928;-66
2021/01/26 03:03:43;;;;;;;;;;;;;;;;;;5093789;28;19924;-67
2021/01/26 03:06:09;;;;;;;;;;;;;;;;;;5088855;28;19928;-67
2021/01/26 03:08:36;;;;;;;;;;;;;;;;;;5093654;28;19962;-66
2021/01/26 03:11:02;;;;;;;;;;;;;;;;;;5088210;28;20010;-66
2021/01/26 03:13:29;;;;;;;;;;;;;;;;;;5085790;28;19930;-67
2021/01/26 03:15:55;;;;;;;;;;;;;;;;;;5089601;28;19978;-66
2021/01/26 03:18:21;;;;;;;;;;;;;;;;;;5093608;28;19924;-67
2021/01/26 03:20:48;;;;;;;;;;;;;;;;;;5088073;28;19924;-66
2021/01/26 03:23:14;;;;;;;;;;;;;;;;;;5080975;28;20395;-67
2021/01/26 03:25:41;;;;;;;;;;;;;;;;;;5083140;28;19931;-66
2021/01/26 03:28:07;;;;;;;;;;;;;;;;;;5092634;28;19924;-67
2021/01/26 03:30:34;;;;;;;;;;;;;;;;;;5085873;28;20064;-66
2021/01/26 03:33:00;;;;;;;;;;;;;;;;;;5079878;28;19925;-72
2021/01/26 03:35:27;;;;;;;;;;;;;;;;;;5084421;28;19935;-66
2021/01/26 03:37:53;;;;;;;;;;;;;;;;;;5090868;28;19931;-67
2021/01/26 03:40:20;;;;;;;;;;;;;;;;;;5092726;28;19924;-67
2021/01/26 03:42:46;;;;;;;;;;;;;;;;;;5092823;28;19990;-67
2021/01/26 03:45:13;;;;;;;;;;;;;;;;;;5090098;28;19924;-66
2021/01/26 03:47:39;;;;;;;;;;;;;;;;;;5097097;28;19924;-66
2021/01/26 03:50:06;;;;;;;;;;;;;;;;;;5094027;28;19951;-66
2021/01/26 03:52:32;;;;;;;;;;;;;;;;;;5085634;28;20328;-66
2021/01/26 03:54:59;;;;;;;;;;;;;;;;;;5087227;28;19924;-66
2021/01/26 03:57:25;;;;;;;;;;;;;;;;;;5084023;28;20023;-66
2021/01/26 03:59:52;;;;;;;;;;;;;;;;;;5085969;28;19931;-67
2021/01/26 04:02:18;;;;;;;;;;;;;;;;;;5086796;28;19924;-67
2021/01/26 04:04:45;;;;;;;;;;;;;;;;;;5083662;28;19925;-66
2021/01/26 04:07:11;;;;;;;;;;;;;;;;;;5083168;28;20324;-65
2021/01/26 04:09:38;;;;;;;;;;;;;;;;;;5087588;28;19924;-67
2021/01/26 04:12:04;;;;;;;;;;;;;;;;;;5091785;28;20432;-66
2021/01/26 04:14:31;;;;;;;;;;;;;;;;;;5088542;28;19978;-67
2021/01/26 04:16:57;;;;;;;;;;;;;;;;;;5081708;28;20411;-67
2021/01/26 04:19:24;;;;;;;;;;;;;;;;;;5086377;28;19950;-66
2021/01/26 04:21:50;;;;;;;;;;;;;;;;;;5080444;28;19932;-66
2021/01/26 04:24:16;;;;;;;;;;;;;;;;;;5088724;28;19925;-67
2021/01/26 04:26:43;;;;;;;;;;;;;;;;;;5087334;28;19931;-66
2021/01/26 04:29:09;;;;;;;;;;;;;;;;;;5083389;28;19928;-67
2021/01/26 04:31:36;;;;;;;;;;;;;;;;;;5083768;28;19928;-66
2021/01/26 04:34:02;;;;;;;;;;;;;;;;;;5087389;28;19969;-67
2021/01/26 04:36:29;;;;;;;;;;;;;;;;;;5082233;28;19924;-66
2021/01/26 04:38:56;;;;;;;;;;;;;;;;;;5092161;28;19928;-68
2021/01/26 04:41:22;;;;;;;;;;;;;;;;;;5089332;28;19929;-67
2021/01/26 04:43:49;;;;;;;;;;;;;;;;;;5091466;28;20340;-66
2021/01/26 04:46:15;;;;;;;;;;;;;;;;;;5087872;28;19996;-67
2021/01/26 04:48:42;;;;;;;;;;;;;;;;;;5086753;28;19925;-67
2021/01/26 04:51:08;;;;;;;;;;;;;;;;;;5085413;28;20300;-66
2021/01/26 04:53:35;;;;;;;;;;;;;;;;;;5093165;28;19932;-66
2021/01/26 04:56:01;;;;;;;;;;;;;;;;;;5093421;28;19986;-67
2021/01/26 04:58:28;;;;;;;;;;;;;;;;;;5092174;28;19925;-66
2021/01/26 05:00:54;;;;;;;;;;;;;;;;;;5094452;28;19931;-67
2021/01/26 05:03:20;;;;;;;;;;;;;;;;;;5085362;28;19924;-67
2021/01/26 05:05:47;;;;;;;;;;;;;;;;;;5093699;28;19924;-67
2021/01/26 05:08:13;;;;;;;;;;;;;;;;;;5084876;28;19924;-66
2021/01/26 05:10:40;;;;;;;;;;;;;;;;;;5083764;28;19932;-67
2021/01/26 05:13:06;;;;;;;;;;;;;;;;;;5085669;28;19925;-67
2021/01/26 05:15:33;;;;;;;;;;;;;;;;;;5094745;28;20410;-67
2021/01/26 05:17:59;;;;;;;;;;;;;;;;;;5093832;28;19924;-67
2021/01/26 05:20:26;;;;;;;;;;;;;;;;;;5090616;28;19928;-66
2021/01/26 05:22:52;;;;;;;;;;;;;;;;;;5084100;28;19924;-66
2021/01/26 05:25:19;;;;;;;;;;;;;;;;;;5094344;28;19928;-67
2021/01/26 05:27:46;;;;;;;;;;;;;;;;;;5092637;28;19936;-67
2021/01/26 05:30:13;;;;;;;;;;;;;;;;;;5037607;28;1386878;-67
2021/01/26 05:32:39;;;;;;;;;;;;;;;;;;5085667;28;19928;-66
2021/01/26 05:35:06;;;;;;;;;;;;;;;;;;5094857;28;19932;-66
2021/01/26 05:37:33;;;;;;;;;;;;;;;;;;5089852;28;19924;-67
2021/01/26 05:40:00;;;;;;;;;;;;;;;;;;5082316;28;19978;-67
2021/01/26 05:42:26;;;;;;;;;;;;;;;;;;5094105;28;19934;-67
2021/01/26 05:44:53;;;;;;;;;;;;;;;;;;5095895;28;19977;-66
2021/01/26 05:47:19;;;;;;;;;;;;;;;;;;5083336;28;20392;-67
2021/01/26 05:49:46;;;;;;;;;;;;;;;;;;5094948;28;19935;-67
2021/01/26 05:52:12;;;;;;;;;;;;;;;;;;5087122;28;19927;-67
2021/01/26 05:54:38;;;;;;;;;;;;;;;;;;5090410;28;20344;-67
2021/01/26 05:57:05;;;;;;;;;;;;;;;;;;5094800;28;19924;-67
2021/01/26 05:59:32;;;;;;;;;;;;;;;;;;5094257;28;20330;-67
2021/01/26 06:01:58;;;;;;;;;;;;;;;;;;5091311;28;19924;-66
2021/01/26 06:04:25;;;;;;;;;;;;;;;;;;5089062;28;20308;-67
2021/01/26 06:06:51;;;;;;;;;;;;;;;;;;5094745;28;19924;-67
2021/01/26 06:09:17;;;;;;;;;;;;;;;;;;5094079;28;19924;-67
2021/01/26 06:11:44;;;;;;;;;;;;;;;;;;5095195;28;19928;-67
2021/01/26 06:14:10;;;;;;;;;;;;;;;;;;5095039;28;19924;-67
2021/01/26 06:16:37;;;;;;;;;;;;;;;;;;5089750;28;20526;-67
2021/01/26 06:19:03;;;;;;;;;;;;;;;;;;5093019;28;19924;-67
2021/01/26 06:21:30;;;;;;;;;;;;;;;;;;5092013;28;19986;-67
2021/01/26 06:23:57;;;;;;;;;;;;;;;;;;5094253;28;19924;-67
2021/01/26 06:26:25;;;;;;;;;;;;;;;;;;5085188;28;20525;-67
2021/01/26 06:28:51;;;;;;;;;;;;;;;;;;5087553;28;19928;-70
2021/01/26 06:31:18;;;;;;;;;;;;;;;;;;5089938;28;19931;-67
2021/01/26 06:33:44;;;;;;;;;;;;;;;;;;5092860;28;19934;-67
2021/01/26 06:36:11;;;;;;;;;;;;;;;;;;5090396;28;19924;-68
2021/01/26 06:38:37;;;;;;;;;;;;;;;;;;5091792;28;19947;-67
2021/01/26 06:41:04;;;;;;;;;;;;;;;;;;5093536;28;19924;-66
2021/01/26 06:43:30;;;;;;;;;;;;;;;;;;5091909;28;20334;-67
2021/01/26 06:45:57;;;;;;;;;;;;;;;;;;5093433;28;19930;-67
2021/01/26 06:48:23;;;;;;;;;;;;;;;;;;5086743;28;19928;-67
2021/01/26 06:50:49;;;;;;;;;;;;;;;;;;5086475;28;19925;-67
2021/01/26 06:53:16;;;;;;;;;;;;;;;;;;5077690;28;19935;-65
2021/01/26 06:55:42;;;;;;;;;;;;;;;;;;5094026;28;19977;-66
2021/01/26 06:58:09;;;;;;;;;;;;;;;;;;5091353;28;19935;-66
2021/01/26 07:00:35;;;;;;;;;;;;;;;;;;5093586;28;19928;-66
2021/01/26 07:03:02;;;;;;;;;;;;;;;;;;5093218;28;20334;-66
2021/01/26 07:05:28;;;;;;;;;;;;;;;;;;5089595;28;19978;-67
2021/01/26 07:07:55;;;;;;;;;;;;;;;;;;5093335;28;20449;-66
2021/01/26 07:10:21;;;;;;;;;;;;;;;;;;5091771;28;19930;-66
2021/01/26 07:12:48;;;;;;;;;;;;;;;;;;5086983;28;19924;-66
2021/01/26 07:15:14;;;;;;;;;;;;;;;;;;5094030;28;19924;-66
2021/01/26 07:17:41;;;;;;;;;;;;;;;;;;5092628;28;19943;-66
2021/01/26 07:20:07;;;;;;;;;;;;;;;;;;5089031;28;19928;-65
2021/01/26 07:22:34;;;;;;;;;;;;;;;;;;5086909;28;19969;-66
2021/01/26 07:25:00;;;;;;;;;;;;;;;;;;5093739;28;20299;-65
2021/01/26 07:27:27;;;;;;;;;;;;;;;;;;5090049;28;20163;-65
2021/01/26 07:29:53;;;;;;;;;;;;;;;;;;5087319;28;20380;-65
2021/01/26 07:32:20;;;;;;;;;;;;;;;;;;5093427;28;19924;-69
2021/01/26 07:34:46;;;;;;;;;;;;;;;;;;5093470;28;19935;-66
2021/01/26 07:37:13;;;;;;;;;;;;;;;;;;5092835;28;19924;-67
2021/01/26 07:39:39;;;;;;;;;;;;;;;;;;5092577;28;19924;-67
2021/01/26 07:42:05;;;;;;;;;;;;;;;;;;5093569;28;19934;-67
2021/01/26 07:44:32;;;;;;;;;;;;;;;;;;5094403;28;19924;-67
2021/01/26 07:46:58;;;;;;;;;;;;;;;;;;5090924;28;19924;-67
2021/01/26 07:49:25;;;;;;;;;;;;;;;;;;5092008;28;19930;-67
2021/01/26 07:51:51;;;;;;;;;;;;;;;;;;5093469;28;19924;-68
2021/01/26 07:54:18;;;;;;;;;;;;;;;;;;5094020;28;20316;-67
2021/01/26 07:56:44;;;;;;;;;;;;;;;;;;5093035;28;19924;-67
2021/01/26 07:59:11;;;;;;;;;;;;;;;;;;5092085;28;19958;-66
2021/01/26 08:01:37;;;;;;;;;;;;;;;;;;5089633;28;19939;-65
2021/01/26 08:04:04;;;;;;;;;;;;;;;;;;5090674;28;20388;-66
2021/01/26 08:06:30;;;;;;;;;;;;;;;;;;5080199;28;19924;-67
2021/01/26 08:08:57;;;;;;;;;;;;;;;;;;5087202;28;19924;-67
2021/01/26 08:11:25;;;;;;;;;;;;;;;;;;5091278;28;20403;-68
2021/01/26 08:13:51;;;;;;;;;;;;;;;;;;5090581;28;19924;-68
2021/01/26 08:16:18;;;;;;;;;;;;;;;;;;5092920;28;20064;-68
2021/01/26 08:18:44;;;;;;;;;;;;;;;;;;5082902;28;19951;-67
2021/01/26 08:21:11;;;;;;;;;;;;;;;;;;5093297;28;20061;-70
2021/01/26 08:23:37;;;;;;;;;;;;;;;;;;5091950;28;20380;-67
2021/01/26 08:26:04;;;;;;;;;;;;;;;;;;5090429;28;20013;-67
2021/01/26 08:28:30;;;;;;;;;;;;;;;;;;5082535;28;19931;-68
2021/01/26 08:30:57;;;;;;;;;;;;;;;;;;5081822;28;20293;-67
2021/01/26 08:33:23;;;;;;;;;;;;;;;;;;5090198;28;19932;-67
2021/01/26 08:35:50;;;;;;;;;;;;;;;;;;5087495;28;20383;-68
2021/01/26 08:38:16;;;;;;;;;;;;;;;;;;5083689;28;19928;-67
2021/01/26 08:40:43;;;;;;;;;;;;;;;;;;5092116;28;19924;-68
2021/01/26 08:43:09;;;;;;;;;;;;;;;;;;5087286;28;20022;-68
2021/01/26 08:45:36;;;;;;;;;;;;;;;;;;5093119;28;20030;-68
2021/01/26 08:48:03;;;;;;;;;;;;;;;;;;5082801;28;20339;-67
2021/01/26 08:50:29;;;;;;;;;;;;;;;;;;5090527;28;19924;-67
2021/01/26 08:52:57;;;;;;;;;;;;;;;;;;5092853;28;20393;-68
2021/01/26 08:55:23;;;;;;;;;;;;;;;;;;5092517;28;20064;-68
2021/01/26 08:57:50;;;;;;;;;;;;;;;;;;5088179;28;19924;-68
2021/01/26 09:00:16;;;;;;;;;;;;;;;;;;5092093;28;20363;-67
2021/01/26 09:02:43;;;;;;;;;;;;;;;;;;5091072;28;19924;-68
2021/01/26 09:05:09;;;;;;;;;;;;;;;;;;5086791;28;19925;-67
2021/01/26 09:07:36;;;;;;;;;;;;;;;;;;5093094;28;19928;-68
2021/01/26 09:10:02;;;;;;;;;;;;;;;;;;5089204;28;19928;-67
2021/01/26 09:12:29;;;;;;;;;;;;;;;;;;5087792;28;19924;-66
2021/01/26 09:14:55;;;;;;;;;;;;;;;;;;5093117;28;19928;-66
2021/01/26 09:17:22;;;;;;;;;;;;;;;;;;5086208;28;19924;-67
2021/01/26 09:19:49;;;;;;;;;;;;;;;;;;5089131;28;19924;-67
2021/01/26 09:22:15;;;;;;;;;;;;;;;;;;5088563;28;20288;-67
2021/01/26 09:24:42;;;;;;;;;;;;;;;;;;5094901;28;19924;-67
2021/01/26 09:27:08;;;;;;;;;;;;;;;;;;5086901;28;19935;-67
2021/01/26 09:29:35;;;;;;;;;;;;;;;;;;5089206;28;19943;-67
2021/01/26 09:32:01;;;;;;;;;;;;;;;;;;5093650;28;19939;-67
2021/01/26 09:34:28;;;;;;;;;;;;;;;;;;5090976;28;20019;-67
2021/01/26 09:36:54;;;;;;;;;;;;;;;;;;5091029;28;20384;-67
2021/01/26 09:39:21;;;;;;;;;;;;;;;;;;5090845;28;20009;-67
2021/01/26 09:41:48;;;;;;;;;;;;;;;;;;5095495;28;19930;-67
2021/01/26 09:44:15;;;;;;;;;;;;;;;;;;5092797;28;19928;-67
2021/01/26 09:46:41;;;;;;;;;;;;;;;;;;5088449;28;19931;-67
2021/01/26 09:49:08;;;;;;;;;;;;;;;;;;5085333;28;19959;-67
2021/01/26 09:51:34;;;;;;;;;;;;;;;;;;5092436;28;20196;-67
2021/01/26 09:54:01;;;;;;;;;;;;;;;;;;5092009;28;19924;-67
2021/01/26 09:56:27;;;;;;;;;;;;;;;;;;5088167;28;19959;-67
2021/01/26 09:58:54;;;;;;;;;;;;;;;;;;5087225;28;19927;-66
2021/01/26 10:01:20;;;;;;;;;;;;;;;;;;5092815;28;20292;-66
2021/01/26 10:03:47;;;;;;;;;;;;;;;;;;5088589;28;19924;-66
2021/01/26 10:06:13;;;;;;;;;;;;;;;;;;5090507;28;20361;-66
2021/01/26 10:08:40;;;;;;;;;;;;;;;;;;5085431;28;19924;-65
2021/01/26 10:11:06;;;;;;;;;;;;;;;;;;5087549;28;20295;-67
2021/01/26 10:13:32;;;;;;;;;;;;;;;;;;5087363;28;19969;-65
2021/01/26 10:15:59;;;;;;;;;;;;;;;;;;5087196;28;19924;-66
2021/01/26 10:18:25;;;;;;;;;;;;;;;;;;5085957;28;19977;-66
2021/01/26 10:20:54;;;;;;;;;;;;;;;;;;5091299;28;20318;-65
2021/01/26 10:23:20;;;;;;;;;;;;;;;;;;5092615;28;19955;-67
2021/01/26 10:25:47;;;;;;;;;;;;;;;;;;5092420;28;19928;-67
2021/01/26 10:28:13;;;;;;;;;;;;;;;;;;5088888;28;20014;-68
2021/01/26 10:30:40;;;;;;;;;;;;;;;;;;5083278;28;19928;-67
2021/01/26 10:33:06;;;;;;;;;;;;;;;;;;5085619;28;19924;-67
2021/01/26 10:35:33;;;;;;;;;;;;;;;;;;5093225;28;20018;-68
2021/01/26 10:37:59;;;;;;;;;;;;;;;;;;5088989;28;19989;-66
2021/01/26 10:40:26;;;;;;;;;;;;;;;;;;5089961;28;20007;-66
2021/01/26 10:42:52;;;;;;;;;;;;;;;;;;5083748;28;19924;-66
2021/01/26 10:45:19;;;;;;;;;;;;;;;;;;5093441;28;19972;-67
2021/01/26 10:47:45;;;;;;;;;;;;;;;;;;5086958;28;19936;-66
2021/01/26 10:50:12;;;;;;;;;;;;;;;;;;5085149;28;20058;-66
2021/01/26 10:52:38;;;;;;;;;;;;;;;;;;5086481;28;19924;-66
2021/01/26 10:55:04;;;;;;;;;;;;;;;;;;5083739;28;19933;-67
2021/01/26 10:57:31;;;;;;;;;;;;;;;;;;5083496;28;19981;-67
2021/01/26 10:59:58;;;;;;;;;;;;;;;;;;5090710;28;19924;-67
2021/01/26 11:02:25;;;;;;;;;;;;;;;;;;5085963;28;19980;-66
2021/01/26 11:04:51;;;;;;;;;;;;;;;;;;5093434;28;19925;-66
2021/01/26 11:07:18;;;;;;;;;;;;;;;;;;5092478;28;20037;-67
2021/01/26 11:09:48;;;;;;;;;;;;;;;;;;5091381;28;20011;-67
2021/01/26 11:12:14;;;;;;;;;;;;;;;;;;5093132;28;19928;-68
2021/01/26 11:14:41;;;;;;;;;;;;;;;;;;5092440;28;19924;-67
2021/01/26 11:17:07;;;;;;;;;;;;;;;;;;5090350;28;19924;-68
2021/01/26 11:19:34;;;;;;;;;;;;;;;;;;5091400;28;19930;-67
2021/01/26 11:22:00;;;;;;;;;;;;;;;;;;5091136;28;20291;-66
2021/01/26 11:24:27;;;;;;;;;;;;;;;;;;5092956;28;19977;-67
2021/01/26 11:26:53;;;;;;;;;;;;;;;;;;5094343;28;19946;-68
2021/01/26 11:29:20;;;;;;;;;;;;;;;;;;5090861;28;19928;-68
2021/01/26 11:31:46;;;;;;;;;;;;;;;;;;5088028;28;20061;-66
2021/01/26 11:34:13;;;;;;;;;;;;;;;;;;5090489;28;20384;-68
2021/01/26 11:36:39;;;;;;;;;;;;;;;;;;5089228;28;19924;-68
2021/01/26 11:39:06;;;;;;;;;;;;;;;;;;5085650;28;20303;-67
2021/01/26 11:41:32;;;;;;;;;;;;;;;;;;5092300;28;19930;-66
2021/01/26 11:43:59;;;;;;;;;;;;;;;;;;5092192;28;19924;-66
2021/01/26 11:46:25;;;;;;;;;;;;;;;;;;5089656;28;19924;-66
2021/01/26 11:48:52;;;;;;;;;;;;;;;;;;5090654;28;20011;-66
2021/01/26 11:51:18;;;;;;;;;;;;;;;;;;5092716;28;20092;-66
2021/01/26 11:53:44;;;;;;;;;;;;;;;;;;5093380;28;19942;-67
2021/01/26 11:56:11;;;;;;;;;;;;;;;;;;5092228;28;19931;-67
2021/01/26 11:58:37;;;;;;;;;;;;;;;;;;5090033;28;19976;-67
2021/01/26 12:01:05;;;;;;;;;;;;;;;;;;5080273;28;20339;-68
2021/01/26 12:03:32;;;;;;;;;;;;;;;;;;5090482;28;19991;-67
2021/01/26 12:05:58;;;;;;;;;;;;;;;;;;5092553;28;19969;-67
2021/01/26 12:08:25;;;;;;;;;;;;;;;;;;5087602;28;19940;-66
2021/01/26 12:10:51;;;;;;;;;;;;;;;;;;5090378;28;19967;-67
2021/01/26 12:13:18;;;;;;;;;;;;;;;;;;5090189;28;19930;-68
2021/01/26 12:15:45;;;;;;;;;;;;;;;;;;5087626;28;19928;-67
2021/01/26 12:18:11;;;;;;;;;;;;;;;;;;5087447;28;19934;-66
2021/01/26 12:20:38;;;;;;;;;;;;;;;;;;5086183;28;19931;-67
2021/01/26 12:23:04;;;;;;;;;;;;;;;;;;5080051;28;20015;-67
2021/01/26 12:25:31;;;;;;;;;;;;;;;;;;5088902;28;20348;-66
2021/01/26 12:27:57;;;;;;;;;;;;;;;;;;5088466;28;19931;-67
2021/01/26 12:30:23;;;;;;;;;;;;;;;;;;5085848;28;19930;-68
2021/01/26 12:32:50;;;;;;;;;;;;;;;;;;5086865;28;20023;-68
2021/01/26 12:35:16;;;;;;;;;;;;;;;;;;5092115;28;19930;-68
2021/01/26 12:37:43;;;;;;;;;;;;;;;;;;5087015;28;20558;-67
2021/01/26 12:40:09;;;;;;;;;;;;;;;;;;5088341;28;20003;-68
2021/01/26 12:42:36;;;;;;;;;;;;;;;;;;5092374;28;19965;-68
2021/01/26 12:45:02;;;;;;;;;;;;;;;;;;5092764;28;19924;-68
2021/01/26 12:47:29;;;;;;;;;;;;;;;;;;5089876;28;19931;-68
2021/01/26 12:49:55;;;;;;;;;;;;;;;;;;5089229;28;20379;-67
2021/01/26 12:52:23;;;;;;;;;;;;;;;;;;5086619;28;19936;-67
2021/01/26 12:54:49;;;;;;;;;;;;;;;;;;5084998;28;19924;-66
2021/01/26 12:57:16;;;;;;;;;;;;;;;;;;5089661;28;20020;-65
2021/01/26 12:59:42;;;;;;;;;;;;;;;;;;5094703;28;20022;-66
2021/01/26 13:02:09;;;;;;;;;;;;;;;;;;5093874;28;19930;-66
2021/01/26 13:04:35;;;;;;;;;;;;;;;;;;5086030;28;20306;-65
2021/01/26 13:07:02;;;;;;;;;;;;;;;;;;5092146;28;19935;-65
2021/01/26 13:09:28;;;;;;;;;;;;;;;;;;5092677;28;19930;-65
2021/01/26 13:11:55;;;;;;;;;;;;;;;;;;5090463;28;19928;-66
2021/01/26 13:14:21;;;;;;;;;;;;;;;;;;5085684;28;19924;-66
2021/01/26 13:16:47;;;;;;;;;;;;;;;;;;5091831;28;20325;-66
2021/01/26 13:19:14;;;;;;;;;;;;;;;;;;5088775;28;19931;-66
2021/01/26 13:21:40;;;;;;;;;;;;;;;;;;5093463;28;19924;-66
2021/01/26 13:24:07;;;;;;;;;;;;;;;;;;5094063;28;19931;-66
2021/01/26 13:26:33;;;;;;;;;;;;;;;;;;5091692;28;19933;-67
2021/01/26 13:29:01;;;;;;;;;;;;;;;;;;5091452;28;19924;-67
2021/01/26 13:31:28;;;;;;;;;;;;;;;;;;5102403;22;19928;-66
2021/01/26 13:33:54;;;;;;;;;;;;;;;;;;5087101;28;20015;-67
2021/01/26 13:36:21;;;;;;;;;;;;;;;;;;5093396;28;19950;-65
2021/01/26 13:38:47;;;;;;;;;;;;;;;;;;5091030;28;19984;-67
2021/01/26 13:41:14;;;;;;;;;;;;;;;;;;5088900;28;20040;-67
2021/01/26 13:43:40;;;;;;;;;;;;;;;;;;5072902;28;19973;-66
2021/01/26 13:46:07;;;;;;;;;;;;;;;;;;5072667;28;19947;-65
2021/01/26 13:48:33;;;;;;;;;;;;;;;;;;5064070;28;20015;-68
2021/01/26 13:51:00;;;;;;;;;;;;;;;;;;5064805;28;19935;-67
2021/01/26 13:53:27;;;;;;;;;;;;;;;;;;5072537;28;20591;-69
2021/01/26 13:55:53;;;;;;;;;;;;;;;;;;5071766;28;19932;-68
2021/01/26 13:58:20;;;;;;;;;;;;;;;;;;5070468;28;20001;-67
2021/01/26 14:00:46;;;;;;;;;;;;;;;;;;5072961;28;19969;-67
2021/01/26 14:03:13;;;;;;;;;;;;;;;;;;5073316;28;20015;-67
2021/01/26 14:05:39;;;;;;;;;;;;;;;;;;5073863;28;20159;-68
2021/01/26 14:08:06;;;;;;;;;;;;;;;;;;5065018;28;20011;-67
2021/01/26 14:10:32;;;;;;;;;;;;;;;;;;5073117;28;20023;-66
2021/01/26 14:13:00;;;;;;;;;;;;;;;;;;5073905;28;19968;-66
2021/01/26 14:15:27;;;;;;;;;;;;;;;;;;5070847;28;19924;-66
2021/01/26 14:17:53;;;;;;;;;;;;;;;;;;5065448;28;20081;-68
2021/01/26 14:20:20;;;;;;;;;;;;;;;;;;5068012;28;19929;-69
2021/01/26 14:22:47;;;;;;;;;;;;;;;;;;5070939;28;19940;-66
2021/01/26 14:25:13;;;;;;;;;;;;;;;;;;5064534;28;19924;-67
2021/01/26 14:27:40;;;;;;;;;;;;;;;;;;5071306;28;20165;-65
2021/01/26 14:30:06;;;;;;;;;;;;;;;;;;5068910;28;19974;-67
2021/01/26 14:32:33;;;;;;;;;;;;;;;;;;5070181;28;19924;-68
2021/01/26 14:34:59;;;;;;;;;;;;;;;;;;5065566;28;20414;-69
2021/01/26 14:37:26;;;;;;;;;;;;;;;;;;5069609;28;19924;-67
2021/01/26 14:39:52;;;;;;;;;;;;;;;;;;5067730;28;20033;-66
2021/01/26 14:42:19;;;;;;;;;;;;;;;;;;5071318;28;20299;-69
2021/01/26 14:44:45;;;;;;;;;;;;;;;;;;5070684;28;19976;-68
2021/01/26 14:47:12;;;;;;;;;;;;;;;;;;5071467;28;19947;-66
2021/01/26 14:49:38;;;;;;;;;;;;;;;;;;5062468;28;20411;-64
2021/01/26 14:52:05;;;;;;;;;;;;;;;;;;5064529;28;20016;-69
2021/01/26 14:54:31;;;;;;;;;;;;;;;;;;5070401;28;19974;-67
2021/01/26 14:56:58;;;;;;;;;;;;;;;;;;5069471;28;20015;-66
2021/01/26 14:59:25;;;;;;;;;;;;;;;;;;5066818;28;20296;-67
2021/01/26 15:01:51;;;;;;;;;;;;;;;;;;5063967;28;20011;-66
2021/01/26 15:04:18;;;;;;;;;;;;;;;;;;5071058;28;20027;-65
2021/01/26 15:06:44;;;;;;;;;;;;;;;;;;5073017;28;19987;-66
2021/01/26 15:09:11;;;;;;;;;;;;;;;;;;5072903;28;19975;-67
2021/01/26 15:11:37;;;;;;;;;;;;;;;;;;5071945;28;20570;-67
2021/01/26 15:14:04;;;;;;;;;;;;;;;;;;5070937;28;19928;-68
2021/01/26 15:16:31;;;;;;;;;;;;;;;;;;5068014;28;20016;-65
2021/01/26 15:18:57;;;;;;;;;;;;;;;;;;5062704;28;19925;-65
2021/01/26 15:21:24;;;;;;;;;;;;;;;;;;5068189;28;19924;-65
2021/01/26 15:23:50;;;;;;;;;;;;;;;;;;5064872;28;19928;-66
2021/01/26 15:26:17;;;;;;;;;;;;;;;;;;5074572;28;19932;-67
2021/01/26 15:28:43;;;;;;;;;;;;;;;;;;5070020;28;19956;-66
2021/01/26 15:31:09;;;;;;;;;;;;;;;;;;5071835;28;19930;-66
2021/01/26 15:33:36;;;;;;;;;;;;;;;;;;5071093;28;19937;-66
2021/01/26 15:36:03;;;;;;;;;;;;;;;;;;5065711;28;19924;-66
2021/01/26 15:38:29;;;;;;;;;;;;;;;;;;5065522;28;20478;-67
2021/01/26 15:40:55;;;;;;;;;;;;;;;;;;5063692;28;19977;-67
2021/01/26 15:43:22;;;;;;;;;;;;;;;;;;5065746;28;20007;-68
2021/01/26 15:45:50;;;;;;;;;;;;;;;;;;5067829;28;19931;-69
2021/01/26 15:48:16;;;;;;;;;;;;;;;;;;5059982;28;20024;-68
2021/01/26 15:50:43;;;;;;;;;;;;;;;;;;5064670;28;20012;-67
2021/01/26 15:53:09;;;;;;;;;;;;;;;;;;5071754;28;19924;-67
2021/01/26 15:55:36;;;;;;;;;;;;;;;;;;5072039;28;19924;-67
2021/01/26 15:58:02;;;;;;;;;;;;;;;;;;5062465;28;20380;-66
2021/01/26 16:00:29;;;;;;;;;;;;;;;;;;5068267;28;19970;-67
2021/01/26 16:02:55;;;;;;;;;;;;;;;;;;5069916;28;19931;-67
2021/01/26 16:05:22;;;;;;;;;;;;;;;;;;5071482;28;19978;-69
2021/01/26 16:07:48;;;;;;;;;;;;;;;;;;5066150;28;20403;-67
2021/01/26 16:10:18;;;;;;;;;;;;;;;;;;5070318;28;19924;-66
2021/01/26 16:12:44;;;;;;;;;;;;;;;;;;5069223;28;19975;-66
2021/01/26 16:15:12;;;;;;;;;;;;;;;;;;5069107;28;20410;-66
2021/01/26 16:17:39;;;;;;;;;;;;;;;;;;5062192;28;19925;-66
2021/01/26 16:20:05;;;;;;;;;;;;;;;;;;5066355;28;19929;-67
2021/01/26 16:22:32;;;;;;;;;;;;;;;;;;5069289;28;20007;-67
2021/01/26 16:24:58;;;;;;;;;;;;;;;;;;5070171;28;19932;-66
2021/01/26 16:27:25;;;;;;;;;;;;;;;;;;5068938;28;19931;-65
2021/01/26 16:29:51;;;;;;;;;;;;;;;;;;5064596;28;19924;-66
2021/01/26 16:32:18;;;;;;;;;;;;;;;;;;5069283;28;20333;-66
2021/01/26 16:34:44;;;;;;;;;;;;;;;;;;5062748;28;19964;-67
2021/01/26 16:37:11;;;;;;;;;;;;;;;;;;5067344;28;19975;-67
2021/01/26 16:39:37;;;;;;;;;;;;;;;;;;5063849;28;20012;-65